Historyczne dane pomiarowe

Dodano dane terminowe – wersja testowa.

Dane z okresu 1951-2019

Wersja bazy: 1.34 [2019-03-16, lista zmian], aktualizacja planowana na 2019-04-15

Dane meteo z obszaru Polski uzyskane na podstawie danych udostępnionych przez Instytut Meteorologii i Gospodarki Wodnej – Państwowy Instytut Badawczy.

 

Wybierz Datę:    

       

TemperaturaWilgotnośćWiatrCiśnienieOpadyŚniegCzas trwania zjawisk
 Stacja t tx tn tng RH VA  wxwx mslp ppp RRR   cm mm wxwxwxwxwxwxwx
1971-05-15 18.0 27.7 7.7--- 4.3 4.3---- 0.5------------
1971-05-16 18.6 26.7 11.8--- 6.3 2.0---- 1.0------------
1971-05-17 19.4 28.4 8.8--- 1.0 1.3---- 0.0------------
1971-05-18 19.7 27.9 10.8--- 2.7 3.0---- 0.0------------
1971-05-19 17.2 27.0 9.6--- 4.0 2.7---- 8.0------------
1971-05-20 18.3 23.0 12.9--- 7.3 1.0---- 0.0------------
1971-05-21 17.9 27.2 10.5--- 6.0 3.0---- 9.4------------
1971-05-22 15.6 18.2 14.2--- 7.3 3.0---- 7.1------------
1971-05-23 15.0 18.6 11.5--- 7.0 3.0---- 0.0------------
1971-05-24 17.8 24.4 13.6--- 6.7 2.7---- 0.0------------
1971-05-25 18.3 26.0 12.7--- 3.0 2.3---- 0.0------------
1971-05-26 19.1 26.5 11.8--- 2.3 2.0---- 0.0------------
1971-05-27 19.2 26.5 10.0--- 2.7 1.3---- 0.0------------
1971-05-28 19.2 24.0 14.7--- 4.7 7.3---- 2.2------------
1971-05-29 19.0 24.1 13.8--- 5.7 3.3---- 0.0------------
1971-05-30 16.8 20.9 10.7--- 7.7 6.0---- 0.0------------
1971-05-31 16.8 21.4 11.2--- 7.3 3.7---- 0.0------------
1971-06-01 18.6 25.8 10.5--- 4.0 3.7---- 0.0------------
1971-06-02 19.8 25.0 11.7--- 4.0 3.7---- 1.0------------
1971-06-03 18.3 25.5 8.2--- 1.7 2.3---- 0.0------------
1971-06-04 17.9 26.9 6.8--- 3.3 2.7---- 0.0------------
1971-06-05 17.2 26.8 5.8--- 2.0 1.3---- 9.7------------
1971-06-06 18.5 25.1 13.8--- 6.0 1.3---- 5.2------------
1971-06-07 18.0 26.8 10.1--- 5.0 1.7---- 5.0------------
1971-06-08 17.5 25.2 13.4--- 7.3 0.7---- 2.0------------
1971-06-09 15.2 18.1 13.7--- 7.7 2.7---- 60.7------------
1971-06-10 16.8 24.7 13.4--- 7.3 1.0---- 2.2------------
1971-06-11 14.9 23.3 11.0--- 4.0 2.7---- 8.2------------
1971-06-12 14.3 19.8 9.7--- 5.7 1.0---- 6.1------------
1971-06-13 9.5 16.1 0.2--- 7.7 4.7---- 0.4------------
258.0 ms

 

Źródłem pochodzenia danych jest Instytut Meteorologii i Gospodarki Wodnej – Państwowy Instytut Badawczy. Dane Instytutu Meteorologii i Gospodarki Wodnej – Państwowego Instytutu Badawczego zostały przetworzone.

Dane źródłowe można odnaleźć na stronie https://dane.imgw.pl